Key Largo, Florida
Current Conditions -  °F | °C
As of 7:58 AM on Saturday 25 Oct 2014 (Local Time) from KHST Reporting Station
Clear Clear  
Wind Chill: 67°   Ceiling: Unl
Heat Index: 67°   Visibility: 10mi
Dew Point: 63°   Wind: 9mph
Humidity: 84%   Direction: 320°NW
Pressure: 29.9"   Gusts: NA
Location:  25.17°N, 80.38°W
Report Text: KHST 251158Z AUTO 32008KT 10SM CLR 20/17 A2990 RMK AO2 SLP128 70195 T01970170 10216 20196 52017
Loading
Personal Weather Stations






























Interactive Weather Map
Tropical Storm Tracking
New forecast layout! Learn more

10-Day Weather Forecast

Advertisements
Track Severe Weather on mobile